Ocean Majesty — CQSC — position and weather

sailwx.info

Track history (hours):
 
Tides and Currents Weather Stations Pressure Air Temp Water Temp Dewpoint Dewpoint Depression Visibility Wind Speed Wind Dir Waves Ship Positions

Ocean Majesty

Last reported at 2017-Jun-23 15:29 UTC. Time now 2017-Jun-23 15:38 UTC.
Position N 60°52' E 007°07'.

Length 136 m; draft 6.3 m.

Type: Passenger vessel. MMSI: 255717000.

Date/timePositionNaut miles runAvg speedWind from/ knotsBaromVisibWave heightAir tempDewpointWater temp
2017-Jun-23 15:29N 60°52' E 007°07'0 0.0
2017-Jun-23 14:59N 60°52' E 007°07'0 0.0
2017-Jun-23 13:59N 60°52' E 007°07'0 0.0
2017-Jun-23 13:29N 60°52' E 007°07'1 1.5
2017-Jun-23 13:00N 60°52' E 007°08'510.6
2017-Jun-23 12:30N 60°58' E 007°06'713.8
2017-Jun-23 11:59N 61°04' E 007°01'713.5
2017-Jun-23 11:29N 61°09' E 006°52'713.4
2017-Jun-23 11:00N 61°11' E 006°38'612.0
2017-Jun-23 10:30N 61°06' E 006°35'0 0.3
2017-Jun-23 10:00N 61°06' E 006°35'0 0.2
2017-Jun-23 09:30N 61°06' E 006°35'611.6
2017-Jun-23 09:00N 61°06' E 006°23'714.4
2017-Jun-23 08:30N 61°08' E 006°08'714.3
2017-Jun-23 08:00N 61°08' E 005°54'714.4
2017-Jun-23 07:30N 61°07' E 005°39'713.6
2017-Jun-23 07:00N 61°04' E 005°26'713.8
2017-Jun-23 06:29N 61°06' E 005°12'613.2
2017-Jun-23 06:00N 61°04' E 004°60'714.2
2017-Jun-23 05:30N 60°60' E 004°47'713.8
2017-Jun-23 05:00N 60°54' E 004°41'714.0
2017-Jun-23 04:30N 60°47' E 004°45'714.6
2017-Jun-23 04:00N 60°40' E 004°51'714.5
2017-Jun-23 03:31N 60°34' E 004°56'714.5
2017-Jun-23 03:00N 60°27' E 005°01'612.4
2017-Jun-23 02:30N 60°22' E 005°10'611.4
2017-Jun-23 02:00N 60°17' E 005°11'612.1
2017-Jun-23 01:30N 60°11' E 005°14'714.3
2017-Jun-23 01:00N 60°04' E 005°19'713.8
2017-Jun-23 00:30N 59°58' E 005°25'714.3
2017-Jun-23 00:00N 59°52' E 005°33'714.0
2017-Jun-22 23:30N 59°45' E 005°31'713.8
2017-Jun-22 23:00N 59°40' E 005°22'714.2
2017-Jun-22 22:30N 59°34' E 005°14'713.8
2017-Jun-22 22:00N 59°27' E 005°13'611.4
2017-Jun-22 21:30N 59°22' E 005°18'611.8
2017-Jun-22 21:00N 59°16' E 005°20'612.2
2017-Jun-22 20:30N 59°10' E 005°21'815.3
2017-Jun-22 20:01N 59°03' E 005°20'815.9
2017-Jun-22 19:30N 58°55' E 005°20'815.9
2017-Jun-22 19:00N 58°47' E 005°20'816.1
2017-Jun-22 18:30N 58°39' E 005°20'816.7
2017-Jun-22 18:00N 58°30' E 005°20'815.5
2017-Jun-22 17:30N 58°23' E 005°24'816.6
2017-Jun-22 17:00N 58°17' E 005°36'816.4
2017-Jun-22 16:30N 58°12' E 005°47'816.9
2017-Jun-22 16:00N 58°06' E 005°59'917.3
2017-Jun-22 15:30N 58°00' E 006°12'917.2
2017-Jun-22 15:00N 57°55' E 006°25'1616.0
2017-Jun-22 14:00N 57°47' E 006°51'816.1
2017-Jun-22 13:30N 57°46' E 007°06'916.8
2017-Jun-22 12:59N 57°46' E 007°22'817.0
2017-Jun-22 12:30N 57°45' E 007°38'816.7
2017-Jun-22 12:00N 57°45' E 007°53'816.5
2017-Jun-22 11:30N 57°46' E 008°09'3716.0
2017-Jun-22 09:11N 57°47' E 009°18'315.7
2017-Jun-22 09:00N 57°47' E 009°24'815.7
2017-Jun-22 08:30N 57°47' E 009°39'815.9
2017-Jun-22 07:59N 57°47' E 009°54'815.9
2017-Jun-22 07:29N 57°47' E 010°09'815.9
2017-Jun-22 06:59N 57°47' E 010°24'815.6
2017-Jun-22 06:29N 57°48' E 010°38'714.2
2017-Jun-22 06:00N 57°46' E 010°50'816.1
2017-Jun-22 05:30N 57°40' E 011°01'816.1
2017-Jun-22 05:00N 57°35' E 011°13'815.9
2017-Jun-22 04:30N 57°30' E 011°23'815.7
2017-Jun-22 04:00N 57°23' E 011°30'816.1
2017-Jun-22 03:30N 57°15' E 011°35'815.7
2017-Jun-22 02:59N 57°07' E 011°40'2814.9
2017-Jun-22 01:06N 56°39' E 011°48'116.0
2017-Jun-22 01:00N 56°38' E 011°47'916.2
2017-Jun-22 00:26N 56°31' E 011°38'7114.5
2017-Jun-21 19:31N 55°22' E 011°02'115.5
2017-Jun-21 19:25N 55°21' E 011°03'815.2
2017-Jun-21 18:54N 55°13' E 011°06'815.3
2017-Jun-21 18:22N 55°05' E 011°03'615.4
2017-Jun-21 18:00N 54°59' E 011°02'815.9
2017-Jun-21 17:30N 54°53' E 010°54'816.8
2017-Jun-21 17:00N 54°45' E 010°53'36 7.5
2017-Jun-21 12:08N 54°19' E 010°08'0 0.0
2017-Jun-21 11:59N 54°19' E 010°08'0 0.0
2017-Jun-21 11:14N 54°19' E 010°08'0 0.0
2017-Jun-21 10:59N 54°19' E 010°08'0 0.0
2017-Jun-21 10:29N 54°19' E 010°08'0 0.0
2017-Jun-21 09:56N 54°19' E 010°08'0 0.0
2017-Jun-21 09:02N 54°19' E 010°08'0 0.0
2017-Jun-21 08:56N 54°19' E 010°08'0 0.0
2017-Jun-21 08:20N 54°19' E 010°08'0 0.0
2017-Jun-21 07:56N 54°19' E 010°08'0 0.0
2017-Jun-21 07:20N 54°19' E 010°08'0 0.0
2017-Jun-21 06:53N 54°19' E 010°08'0 0.0
2017-Jun-21 06:29N 54°19' E 010°08'0 0.0
2017-Jun-21 05:56N 54°19' E 010°08'1 1.9
2017-Jun-21 05:30N 54°20' E 010°09'4 8.4
2017-Jun-21 05:00N 54°24' E 010°12'612.6
2017-Jun-21 04:30N 54°29' E 010°16'1512.1
2017-Jun-21 03:18N 54°35' E 010°40'412.3
2017-Jun-21 03:01N 54°35' E 010°46'612.6
2017-Jun-21 02:30N 54°36' E 010°56'713.8
2017-Jun-21 02:00N 54°36' E 011°08'713.9
2017-Jun-21 01:30N 54°34' E 011°20'714.1
2017-Jun-21 01:00N 54°31' E 011°31'1515.4
2017-Jun-21 00:02N 54°26' E 011°55'015.4
2017-Jun-21 00:00N 54°26' E 011°56'815.4
2017-Jun-20 23:30N 54°27' E 012°09'6715.1
2017-Jun-20 19:04N 55°02' E 013°48'115.7
2017-Jun-20 19:00N 55°02' E 013°50'815.9
2017-Jun-20 18:30N 55°05' E 014°03'816.0
2017-Jun-20 18:00N 55°11' E 014°13'816.2
2017-Jun-20 17:30N 55°17' E 014°22'816.1
2017-Jun-20 17:00N 55°23' E 014°31'815.6
2017-Jun-20 16:30N 55°28' E 014°42'815.9
2017-Jun-20 16:00N 55°32' E 014°54'816.0
2017-Jun-20 15:30N 55°36' E 015°06'815.8
2017-Jun-20 15:00N 55°40' E 015°18'1615.7
2017-Jun-20 14:00N 55°48' E 015°42'815.7
2017-Jun-20 13:30N 55°52' E 015°54'815.6
2017-Jun-20 13:00N 55°56' E 016°06'815.7
2017-Jun-20 12:30N 55°60' E 016°18'815.8
2017-Jun-20 12:00N 56°04' E 016°30'816.0
2017-Jun-20 11:30N 56°09' E 016°42'916.1
2017-Jun-20 10:58N 56°14' E 016°54'716.1
2017-Jun-20 10:30N 56°18' E 017°05'16415.6
2017-Jun-19 23:58N 58°29' E 020°09'716.1
2017-Jun-19 23:30N 58°35' E 020°16'816.2
2017-Jun-19 23:00N 58°43' E 020°23'816.1
2017-Jun-19 22:30N 58°50' E 020°30'815.9
2017-Jun-19 22:01N 58°57' E 020°36'816.0
2017-Jun-19 21:31N 59°04' E 020°43'816.1
2017-Jun-19 21:01N 59°12' E 020°50'816.0
2017-Jun-19 20:31N 59°19' E 020°57'816.7
2017-Jun-19 20:00N 59°26' E 021°05'815.8
2017-Jun-19 19:30N 59°33' E 021°11'815.5
2017-Jun-19 19:00N 59°40' E 021°18'713.2
2017-Jun-19 18:31N 59°47' E 021°21'611.2
2017-Jun-19 18:01N 59°52' E 021°26'713.2
2017-Jun-19 17:30N 59°55' E 021°37'612.9
2017-Jun-19 17:00N 60°01' E 021°42'713.5
2017-Jun-19 16:30N 60°08' E 021°41'611.7
2017-Jun-19 16:01N 60°14' E 021°44'713.3
2017-Jun-19 15:31N 60°16' E 021°56'612.9
2017-Jun-19 15:00N 60°21' E 022°05'7 6.6
2017-Jun-19 13:58N 60°27' E 022°13'0 0.0
2017-Jun-19 13:28N 60°27' E 022°13'0 0.0
2017-Jun-19 12:58N 60°27' E 022°13'0 0.0
2017-Jun-19 12:28N 60°27' E 022°13'0 0.0
2017-Jun-19 11:58N 60°27' E 022°13'0 0.0
2017-Jun-19 11:28N 60°27' E 022°13'0 0.0
2017-Jun-19 10:58N 60°27' E 022°13'0 0.0
2017-Jun-19 10:28N 60°27' E 022°13'0 0.0
2017-Jun-19 09:58N 60°27' E 022°13'0 0.0
2017-Jun-19 09:28N 60°27' E 022°13'0 0.0
2017-Jun-19 08:58N 60°27' E 022°13'0 0.0
2017-Jun-19 08:28N 60°27' E 022°13'0 0.0
2017-Jun-19 07:58N 60°27' E 022°13'0 0.0
2017-Jun-19 07:28N 60°27' E 022°13'0 0.0
2017-Jun-19 06:58N 60°27' E 022°13'0 0.0
2017-Jun-19 06:28N 60°27' E 022°13'0 0.0
2017-Jun-19 05:58N 60°27' E 022°13'0 0.0
2017-Jun-19 05:31N 60°27' E 022°13'0 0.0
2017-Jun-19 04:58N 60°27' E 022°13'0 0.0
2017-Jun-19 04:28N 60°27' E 022°13'0 0.0
2017-Jun-19 03:58N 60°27' E 022°13'0 0.0
2017-Jun-19 03:30N 60°27' E 022°13'2 4.1
2017-Jun-19 03:00N 60°25' E 022°10'5 9.3
2017-Jun-19 02:30N 60°21' E 022°05'612.8
2017-Jun-19 02:00N 60°16' E 021°57'713.8
2017-Jun-19 01:30N 60°14' E 021°44'510.7
2017-Jun-19 01:01N 60°09' E 021°41'612.7
2017-Jun-19 00:31N 60°02' E 021°41'713.4
2017-Jun-19 00:01N 59°56' E 021°39'714.1
2017-Jun-18 23:31N 59°52' E 021°27'612.6
2017-Jun-18 23:00N 59°46' E 021°21'612.4
2017-Jun-18 22:30N 59°40' E 021°22'713.4
2017-Jun-18 22:00N 59°36' E 021°33'714.4
2017-Jun-18 21:31N 59°36' E 021°47'714.5
2017-Jun-18 21:00N 59°36' E 022°01'714.5
2017-Jun-18 20:31N 59°37' E 022°15'714.5
2017-Jun-18 20:00N 59°38' E 022°30'714.6
2017-Jun-18 19:31N 59°38' E 022°44'714.7
2017-Jun-18 19:00N 59°39' E 022°59'714.6
2017-Jun-18 18:30N 59°40' E 023°13'815.2
2017-Jun-18 18:01N 59°41' E 023°28'815.5
2017-Jun-18 17:30N 59°43' E 023°43'815.3
2017-Jun-18 17:01N 59°46' E 023°57'815.1
2017-Jun-18 16:31N 59°48' E 024°11'815.1
2017-Jun-18 16:00N 59°51' E 024°25'714.9
2017-Jun-18 15:31N 59°54' E 024°38'714.8
2017-Jun-18 15:01N 59°58' E 024°51'1211.6
2017-Jun-18 14:00N 60°09' E 024°60'2 2.6
2017-Jun-18 13:25N 60°10' E 024°58'0 0.0
2017-Jun-18 12:58N 60°10' E 024°58'0 0.0
2017-Jun-18 12:28N 60°10' E 024°58'0 0.0
2017-Jun-18 11:58N 60°10' E 024°58'0 0.0
2017-Jun-18 11:28N 60°10' E 024°58'0 0.0
2017-Jun-18 10:58N 60°10' E 024°58'0 0.0
2017-Jun-18 10:28N 60°10' E 024°58'0 0.0
2017-Jun-18 09:58N 60°10' E 024°58'0 0.0
2017-Jun-18 09:25N 60°10' E 024°58'0 0.0
2017-Jun-18 08:58N 60°10' E 024°58'0 0.0
2017-Jun-18 08:28N 60°10' E 024°58'0 0.0
2017-Jun-18 07:58N 60°10' E 024°58'0 0.0
2017-Jun-18 07:28N 60°10' E 024°58'0 0.0
2017-Jun-18 06:58N 60°10' E 024°58'0 0.0
2017-Jun-18 06:28N 60°10' E 024°58'0 0.0
2017-Jun-18 05:52N 60°10' E 024°58'0 0.0
2017-Jun-18 05:28N 60°10' E 024°58'0 0.0
2017-Jun-18 04:58N 60°10' E 024°58'0 0.0
2017-Jun-18 04:28N 60°10' E 024°58'0 0.7
2017-Jun-18 04:01N 60°10' E 024°58'510.0
2017-Jun-18 03:31N 60°05' E 024°58'510.1
2017-Jun-18 03:00N 60°00' E 025°03'714.2
2017-Jun-18 02:30N 59°59' E 025°17'815.7
2017-Jun-18 02:00N 59°58' E 025°33'815.5
2017-Jun-18 01:30N 59°58' E 025°48'815.7
2017-Jun-18 01:01N 59°59' E 026°04'815.8
2017-Jun-18 00:31N 60°00' E 026°19'815.6
2017-Jun-18 00:01N 60°01' E 026°35'815.6
2017-Jun-17 23:31N 60°00' E 026°50'815.0
2017-Jun-17 23:01N 60°00' E 027°05'815.8
2017-Jun-17 22:31N 60°05' E 027°19'815.8
2017-Jun-17 22:00N 60°08' E 027°32'815.4
2017-Jun-17 21:30N 60°12' E 027°46'815.6
2017-Jun-17 21:00N 60°10' E 028°01'815.5
2017-Jun-17 20:30N 60°08' E 028°17'815.4
2017-Jun-17 20:00N 60°04' E 028°29'815.8
2017-Jun-17 19:30N 60°03' E 028°45'815.1
2017-Jun-17 19:00N 60°02' E 029°00'815.8
2017-Jun-17 18:30N 60°02' E 029°16'612.8
2017-Jun-17 18:00N 60°02' E 029°29'612.2
2017-Jun-17 17:30N 59°60' E 029°40'510.7
2017-Jun-17 17:00N 59°57' E 029°50'611.3
2017-Jun-17 16:31N 59°55' E 030°00'510.6
2017-Jun-17 16:01N 59°53' E 030°10'3 6.2
2017-Jun-17 15:30N 59°55' E 030°15'1 2.8
2017-Jun-17 15:01N 59°56' E 030°17'0 0.0
2017-Jun-17 14:28N 59°56' E 030°17'0 0.0
2017-Jun-17 13:28N 59°56' E 030°17'0 0.0
2017-Jun-17 12:58N 59°56' E 030°17'0 0.0
2017-Jun-17 12:28N 59°56' E 030°17'0 0.0
2017-Jun-17 11:58N 59°56' E 030°17'0 0.0
2017-Jun-17 11:28N 59°56' E 030°17'0 0.0
2017-Jun-17 10:58N 59°56' E 030°17'0 0.0
2017-Jun-17 10:28N 59°56' E 030°17'0 0.0
2017-Jun-17 09:58N 59°56' E 030°17'0 0.0
2017-Jun-17 09:28N 59°56' E 030°17'0 0.0
2017-Jun-17 08:58N 59°56' E 030°17'0 0.0
2017-Jun-17 08:28N 59°56' E 030°17'0 0.0
2017-Jun-17 07:58N 59°56' E 030°17'0 0.0
2017-Jun-17 07:28N 59°56' E 030°17'0 0.0
2017-Jun-17 06:58N 59°56' E 030°17'0 0.0
2017-Jun-17 06:30N 59°56' E 030°17'0 0.0
2017-Jun-17 05:58N 59°56' E 030°17'0 0.0
2017-Jun-17 05:30N 59°56' E 030°17'0 0.0
2017-Jun-17 04:57N 59°56' E 030°17'0 0.0
2017-Jun-17 04:31N 59°56' E 030°17'0 0.0
2017-Jun-17 04:01N 59°56' E 030°17'0 0.0
2017-Jun-17 03:28N 59°56' E 030°17'0 0.0
2017-Jun-17 02:58N 59°56' E 030°17'0 0.0
2017-Jun-17 02:30N 59°56' E 030°17'0 0.0
2017-Jun-17 02:01N 59°56' E 030°17'0 0.0
2017-Jun-17 01:28N 59°56' E 030°17'0 0.0
2017-Jun-17 01:01N 59°56' E 030°17'0 0.0
2017-Jun-17 00:30N 59°56' E 030°17'0 0.0
2017-Jun-16 23:58N 59°56' E 030°17'0 0.0
2017-Jun-16 23:28N 59°56' E 030°17'0 0.0
2017-Jun-16 22:58N 59°56' E 030°17'0 0.0
2017-Jun-16 22:27N 59°56' E 030°17'0 0.0
2017-Jun-16 21:55N 59°56' E 030°17'0 0.0
2017-Jun-16 21:30N 59°56' E 030°17'0 0.0
2017-Jun-16 21:00N 59°56' E 030°17'0 0.0
2017-Jun-16 20:31N 59°56' E 030°17'0 0.0
2017-Jun-16 20:01N 59°56' E 030°17'0 0.0
2017-Jun-16 19:31N 59°56' E 030°17'0 0.0
2017-Jun-16 19:00N 59°56' E 030°17'0 0.0
2017-Jun-16 18:28N 59°56' E 030°17'0 0.0
2017-Jun-16 17:57N 59°56' E 030°17'0 0.0
2017-Jun-16 17:31N 59°56' E 030°17'0 0.0
2017-Jun-16 17:01N 59°56' E 030°17'0 0.0
2017-Jun-16 16:30N 59°56' E 030°17'0 0.0
2017-Jun-16 16:01N 59°56' E 030°17'0 0.0
2017-Jun-16 15:28N 59°56' E 030°17'0 0.0
2017-Jun-16 15:00N 59°56' E 030°17'0 0.0
2017-Jun-16 14:30N 59°56' E 030°17'0 0.0
2017-Jun-16 13:31N 59°56' E 030°17'0 0.0
2017-Jun-16 12:58N 59°56' E 030°17'0 0.0
2017-Jun-16 12:28N 59°56' E 030°17'0 0.0
2017-Jun-16 12:01N 59°56' E 030°17'0 0.0
2017-Jun-16 11:30N 59°56' E 030°17'0 0.0
2017-Jun-16 11:01N 59°56' E 030°17'0 0.0
2017-Jun-16 10:30N 59°56' E 030°17'0 0.0
2017-Jun-16 10:00N 59°56' E 030°17'0 0.0
2017-Jun-16 09:30N 59°56' E 030°17'0 0.0
2017-Jun-16 09:00N 59°56' E 030°17'0 0.0
2017-Jun-16 08:30N 59°56' E 030°17'0 0.0
2017-Jun-16 08:00N 59°56' E 030°17'0 0.0
2017-Jun-16 07:30N 59°56' E 030°17'0 0.0
2017-Jun-16 07:01N 59°56' E 030°17'0 0.0
2017-Jun-16 06:30N 59°56' E 030°17'1 2.8
2017-Jun-16 06:00N 59°55' E 030°15'3 6.2
2017-Jun-16 05:30N 59°53' E 030°10'4 8.4
2017-Jun-16 05:00N 59°55' E 030°03'510.6
2017-Jun-16 04:30N 59°57' E 029°53'510.3
2017-Jun-16 04:01N 59°59' E 029°44'611.4
2017-Jun-16 03:31N 60°01' E 029°33'611.1
2017-Jun-16 03:01N 60°02' E 029°22'713.5
2017-Jun-16 02:31N 60°02' E 029°08'713.8
2017-Jun-16 02:01N 60°02' E 028°54'714.1
2017-Jun-16 01:31N 60°02' E 028°40'713.9
2017-Jun-16 01:01N 60°03' E 028°26'713.7
2017-Jun-16 00:30N 60°07' E 028°15'713.9
2017-Jun-16 00:00N 60°09' E 028°02'713.9
2017-Jun-15 23:30N 60°11' E 027°48'713.9
2017-Jun-15 23:00N 60°08' E 027°36'714.1
2017-Jun-15 22:30N 60°04' E 027°24'714.1
2017-Jun-15 22:00N 60°00' E 027°12'713.1
2017-Jun-15 21:30N 59°58' E 026°59'714.0
2017-Jun-15 21:00N 59°60' E 026°46'713.7
2017-Jun-15 20:30N 59°59' E 026°32'713.9
2017-Jun-15 20:01N 59°57' E 026°19'713.7
2017-Jun-15 19:31N 59°55' E 026°06'713.8
2017-Jun-15 19:01N 59°52' E 025°53'714.0
2017-Jun-15 18:30N 59°50' E 025°40'714.1
2017-Jun-15 18:00N 59°48' E 025°26'714.1
2017-Jun-15 17:30N 59°46' E 025°13'714.2
2017-Jun-15 17:00N 59°44' E 024°59'714.7
2017-Jun-15 16:30N 59°41' E 024°47'612.2
2017-Jun-15 16:00N 59°35' E 024°42'612.9
2017-Jun-15 15:30N 59°29' E 024°46'2 3.2
2017-Jun-15 15:00N 59°27' E 024°46'0 0.0
2017-Jun-15 14:00N 59°27' E 024°46'0 0.0
2017-Jun-15 13:30N 59°27' E 024°46'0 0.0
2017-Jun-15 12:57N 59°27' E 024°46'0 0.0
2017-Jun-15 12:28N 59°27' E 024°46'0 0.0
2017-Jun-15 11:58N 59°27' E 024°46'0 0.0
2017-Jun-15 11:30N 59°27' E 024°46'0 0.0
2017-Jun-15 10:58N 59°27' E 024°46'0 0.0
2017-Jun-15 10:30N 59°27' E 024°46'0 0.0
2017-Jun-15 09:59N 59°27' E 024°46'13 4.3
2017-Jun-15 06:55N 59°30' E 024°21'712.8
2017-Jun-15 06:24N 59°29' E 024°08'512.7
2017-Jun-15 06:00N 59°28' E 023°58'713.5
2017-Jun-15 05:29N 59°27' E 023°44'714.0
2017-Jun-15 05:00N 59°27' E 023°31'1013.7
2017-Jun-15 04:16N 59°25' E 023°11'613.6
2017-Jun-15 03:50N 59°24' E 022°60'913.8
2017-Jun-15 03:09N 59°23' E 022°42'214.1
2017-Jun-15 03:00N 59°23' E 022°38'1215.0
2017-Jun-15 02:12N 59°22' E 022°14'315.2
2017-Jun-15 01:59N 59°22' E 022°08'715.3
2017-Jun-15 01:30N 59°21' E 021°53'5815.2
2017-Jun-14 21:40N 59°16' E 019°59'315.3
2017-Jun-14 21:30N 59°16' E 019°54'915.2
2017-Jun-14 20:53N 59°15' E 019°36'615.1
2017-Jun-14 20:30N 59°15' E 019°25'815.1
2017-Jun-14 20:00N 59°14' E 019°10'612.8
2017-Jun-14 19:30N 59°16' E 018°58'510.0
2017-Jun-14 19:00N 59°19' E 018°50'612.3
2017-Jun-14 18:30N 59°23' E 018°41'712.3
2017-Jun-14 17:59N 59°26' E 018°30'3 5.2
2017-Jun-14 17:29N 59°25' E 018°25'3 6.5
2017-Jun-14 16:59N 59°22' E 018°24'510.3
2017-Jun-14 16:30N 59°21' E 018°15'5 9.6
2017-Jun-14 16:00N 59°19' E 018°06'0 0.7
2017-Jun-14 15:29N 59°19' E 018°05'0 0.0
2017-Jun-14 14:59N 59°19' E 018°05'0 0.0
2017-Jun-14 13:59N 59°19' E 018°05'0 0.0
2017-Jun-14 13:29N 59°19' E 018°05'0 0.0
2017-Jun-14 12:59N 59°19' E 018°05'0 0.0
2017-Jun-14 12:29N 59°19' E 018°05'0 0.0
2017-Jun-14 11:59N 59°19' E 018°05'0 0.0
2017-Jun-14 11:29N 59°19' E 018°05'0 0.0
2017-Jun-14 10:59N 59°19' E 018°05'0 0.0
2017-Jun-14 10:29N 59°19' E 018°05'0 0.0
2017-Jun-14 09:59N 59°19' E 018°05'0 0.0
2017-Jun-14 09:29N 59°19' E 018°05'0 0.0
2017-Jun-14 08:59N 59°19' E 018°05'0 0.0
2017-Jun-14 08:23N 59°19' E 018°05'0 0.0
2017-Jun-14 07:59N 59°19' E 018°05'0 0.0
2017-Jun-14 07:29N 59°19' E 018°05'0 0.0
2017-Jun-14 06:59N 59°19' E 018°05'0 0.0
2017-Jun-14 06:29N 59°19' E 018°05'2 3.9
2017-Jun-14 06:00N 59°19' E 018°09'611.3
2017-Jun-14 05:30N 59°23' E 018°18'5 9.2
2017-Jun-14 05:00N 59°22' E 018°27'5 9.5
2017-Jun-14 04:30N 59°27' E 018°24'611.2
2017-Jun-14 04:00N 59°23' E 018°33'611.4
2017-Jun-14 03:31N 59°22' E 018°44'612.1
2017-Jun-14 03:00N 59°18' E 018°53'510.7
2017-Jun-14 02:30N 59°15' E 019°02'612.7
2017-Jun-14 02:01N 59°11' E 019°11'815.9
2017-Jun-14 01:30N 59°05' E 019°22'816.2
2017-Jun-14 01:01N 58°59' E 019°33'816.4
2017-Jun-14 00:31N 58°53' E 019°43'816.5
2017-Jun-14 00:01N 58°47' E 019°54'1116.5
2017-Jun-13 23:22N 58°40' E 020°08'616.4
2017-Jun-13 23:01N 58°36' E 020°16'816.3
2017-Jun-13 22:30N 58°30' E 020°28'816.3
2017-Jun-13 22:01N 58°25' E 020°40'  
Track history (hours):
 
Tides and Currents Weather Stations Pressure Air Temp Water Temp Dewpoint Dewpoint Depression Visibility Wind Speed Wind Dir Waves Ship Positions

Ocean Majesty

Last reported at 2017-Jun-23 15:29 UTC. Time now 2017-Jun-23 15:38 UTC.
Position N 60°52' E 007°07'.

Length 136 m; draft 6.3 m.

Type: Passenger vessel. MMSI: 255717000.

Date/timePositionNaut miles runAvg speedWind from/ knotsBaromVisibWave heightAir tempDewpointWater temp
2017-Jun-23 15:29N 60°52' E 007°07'0 0.0
2017-Jun-23 14:59N 60°52' E 007°07'0 0.0
2017-Jun-23 13:59N 60°52' E 007°07'0 0.0
2017-Jun-23 13:29N 60°52' E 007°07'1 1.5
2017-Jun-23 13:00N 60°52' E 007°08'510.6
2017-Jun-23 12:30N 60°58' E 007°06'713.8
2017-Jun-23 11:59N 61°04' E 007°01'713.5
2017-Jun-23 11:29N 61°09' E 006°52'713.4
2017-Jun-23 11:00N 61°11' E 006°38'612.0
2017-Jun-23 10:30N 61°06' E 006°35'0 0.3
2017-Jun-23 10:00N 61°06' E 006°35'0 0.2
2017-Jun-23 09:30N 61°06' E 006°35'611.6
2017-Jun-23 09:00N 61°06' E 006°23'714.4
2017-Jun-23 08:30N 61°08' E 006°08'714.3
2017-Jun-23 08:00N 61°08' E 005°54'714.4
2017-Jun-23 07:30N 61°07' E 005°39'713.6
2017-Jun-23 07:00N 61°04' E 005°26'713.8
2017-Jun-23 06:29N 61°06' E 005°12'613.2
2017-Jun-23 06:00N 61°04' E 004°60'714.2
2017-Jun-23 05:30N 60°60' E 004°47'713.8
2017-Jun-23 05:00N 60°54' E 004°41'714.0
2017-Jun-23 04:30N 60°47' E 004°45'714.6
2017-Jun-23 04:00N 60°40' E 004°51'714.5
2017-Jun-23 03:31N 60°34' E 004°56'714.5
2017-Jun-23 03:00N 60°27' E 005°01'612.4
2017-Jun-23 02:30N 60°22' E 005°10'611.4
2017-Jun-23 02:00N 60°17' E 005°11'612.1
2017-Jun-23 01:30N 60°11' E 005°14'714.3
2017-Jun-23 01:00N 60°04' E 005°19'713.8
2017-Jun-23 00:30N 59°58' E 005°25'714.3
2017-Jun-23 00:00N 59°52' E 005°33'714.0
2017-Jun-22 23:30N 59°45' E 005°31'713.8
2017-Jun-22 23:00N 59°40' E 005°22'714.2
2017-Jun-22 22:30N 59°34' E 005°14'713.8
2017-Jun-22 22:00N 59°27' E 005°13'611.4
2017-Jun-22 21:30N 59°22' E 005°18'611.8
2017-Jun-22 21:00N 59°16' E 005°20'612.2
2017-Jun-22 20:30N 59°10' E 005°21'815.3
2017-Jun-22 20:01N 59°03' E 005°20'815.9
2017-Jun-22 19:30N 58°55' E 005°20'815.9
2017-Jun-22 19:00N 58°47' E 005°20'816.1
2017-Jun-22 18:30N 58°39' E 005°20'816.7
2017-Jun-22 18:00N 58°30' E 005°20'815.5
2017-Jun-22 17:30N 58°23' E 005°24'816.6
2017-Jun-22 17:00N 58°17' E 005°36'816.4
2017-Jun-22 16:30N 58°12' E 005°47'816.9
2017-Jun-22 16:00N 58°06' E 005°59'917.3
2017-Jun-22 15:30N 58°00' E 006°12'917.2
2017-Jun-22 15:00N 57°55' E 006°25'1616.0
2017-Jun-22 14:00N 57°47' E 006°51'816.1
2017-Jun-22 13:30N 57°46' E 007°06'916.8
2017-Jun-22 12:59N 57°46' E 007°22'817.0
2017-Jun-22 12:30N 57°45' E 007°38'816.7
2017-Jun-22 12:00N 57°45' E 007°53'816.5
2017-Jun-22 11:30N 57°46' E 008°09'3716.0
2017-Jun-22 09:11N 57°47' E 009°18'315.7
2017-Jun-22 09:00N 57°47' E 009°24'815.7
2017-Jun-22 08:30N 57°47' E 009°39'815.9
2017-Jun-22 07:59N 57°47' E 009°54'815.9
2017-Jun-22 07:29N 57°47' E 010°09'815.9
2017-Jun-22 06:59N 57°47' E 010°24'815.6
2017-Jun-22 06:29N 57°48' E 010°38'714.2
2017-Jun-22 06:00N 57°46' E 010°50'816.1
2017-Jun-22 05:30N 57°40' E 011°01'816.1
2017-Jun-22 05:00N 57°35' E 011°13'815.9
2017-Jun-22 04:30N 57°30' E 011°23'815.7
2017-Jun-22 04:00N 57°23' E 011°30'816.1
2017-Jun-22 03:30N 57°15' E 011°35'815.7
2017-Jun-22 02:59N 57°07' E 011°40'2814.9
2017-Jun-22 01:06N 56°39' E 011°48'116.0
2017-Jun-22 01:00N 56°38' E 011°47'916.2
2017-Jun-22 00:26N 56°31' E 011°38'7114.5
2017-Jun-21 19:31N 55°22' E 011°02'115.5
2017-Jun-21 19:25N 55°21' E 011°03'815.2
2017-Jun-21 18:54N 55°13' E 011°06'815.3
2017-Jun-21 18:22N 55°05' E 011°03'615.4
2017-Jun-21 18:00N 54°59' E 011°02'815.9
2017-Jun-21 17:30N 54°53' E 010°54'816.8
2017-Jun-21 17:00N 54°45' E 010°53'36 7.5
2017-Jun-21 12:08N 54°19' E 010°08'0 0.0
2017-Jun-21 11:59N 54°19' E 010°08'0 0.0
2017-Jun-21 11:14N 54°19' E 010°08'0 0.0
2017-Jun-21 10:59N 54°19' E 010°08'0 0.0
2017-Jun-21 10:29N 54°19' E 010°08'0 0.0
2017-Jun-21 09:56N 54°19' E 010°08'0 0.0
2017-Jun-21 09:02N 54°19' E 010°08'0 0.0
2017-Jun-21 08:56N 54°19' E 010°08'0 0.0
2017-Jun-21 08:20N 54°19' E 010°08'0 0.0
2017-Jun-21 07:56N 54°19' E 010°08'0 0.0
2017-Jun-21 07:20N 54°19' E 010°08'0 0.0
2017-Jun-21 06:53N 54°19' E 010°08'0 0.0
2017-Jun-21 06:29N 54°19' E 010°08'0 0.0
2017-Jun-21 05:56N 54°19' E 010°08'1 1.9
2017-Jun-21 05:30N 54°20' E 010°09'4 8.4
2017-Jun-21 05:00N 54°24' E 010°12'612.6
2017-Jun-21 04:30N 54°29' E 010°16'1512.1
2017-Jun-21 03:18N 54°35' E 010°40'412.3
2017-Jun-21 03:01N 54°35' E 010°46'612.6
2017-Jun-21 02:30N 54°36' E 010°56'713.8
2017-Jun-21 02:00N 54°36' E 011°08'713.9
2017-Jun-21 01:30N 54°34' E 011°20'714.1
2017-Jun-21 01:00N 54°31' E 011°31'1515.4
2017-Jun-21 00:02N 54°26' E 011°55'015.4
2017-Jun-21 00:00N 54°26' E 011°56'815.4
2017-Jun-20 23:30N 54°27' E 012°09'6715.1
2017-Jun-20 19:04N 55°02' E 013°48'115.7
2017-Jun-20 19:00N 55°02' E 013°50'815.9
2017-Jun-20 18:30N 55°05' E 014°03'816.0
2017-Jun-20 18:00N 55°11' E 014°13'816.2
2017-Jun-20 17:30N 55°17' E 014°22'816.1
2017-Jun-20 17:00N 55°23' E 014°31'815.6
2017-Jun-20 16:30N 55°28' E 014°42'815.9
2017-Jun-20 16:00N 55°32' E 014°54'816.0
2017-Jun-20 15:30N 55°36' E 015°06'815.8
2017-Jun-20 15:00N 55°40' E 015°18'1615.7
2017-Jun-20 14:00N 55°48' E 015°42'815.7
2017-Jun-20 13:30N 55°52' E 015°54'815.6
2017-Jun-20 13:00N 55°56' E 016°06'815.7
2017-Jun-20 12:30N 55°60' E 016°18'815.8
2017-Jun-20 12:00N 56°04' E 016°30'816.0
2017-Jun-20 11:30N 56°09' E 016°42'916.1
2017-Jun-20 10:58N 56°14' E 016°54'716.1
2017-Jun-20 10:30N 56°18' E 017°05'16415.6
2017-Jun-19 23:58N 58°29' E 020°09'716.1
2017-Jun-19 23:30N 58°35' E 020°16'816.2
2017-Jun-19 23:00N 58°43' E 020°23'816.1
2017-Jun-19 22:30N 58°50' E 020°30'815.9
2017-Jun-19 22:01N 58°57' E 020°36'816.0
2017-Jun-19 21:31N 59°04' E 020°43'816.1
2017-Jun-19 21:01N 59°12' E 020°50'816.0
2017-Jun-19 20:31N 59°19' E 020°57'816.7
2017-Jun-19 20:00N 59°26' E 021°05'815.8
2017-Jun-19 19:30N 59°33' E 021°11'815.5
2017-Jun-19 19:00N 59°40' E 021°18'713.2
2017-Jun-19 18:31N 59°47' E 021°21'611.2
2017-Jun-19 18:01N 59°52' E 021°26'713.2
2017-Jun-19 17:30N 59°55' E 021°37'612.9
2017-Jun-19 17:00N 60°01' E 021°42'713.5
2017-Jun-19 16:30N 60°08' E 021°41'611.7
2017-Jun-19 16:01N 60°14' E 021°44'713.3
2017-Jun-19 15:31N 60°16' E 021°56'612.9
2017-Jun-19 15:00N 60°21' E 022°05'7 6.6
2017-Jun-19 13:58N 60°27' E 022°13'0 0.0
2017-Jun-19 13:28N 60°27' E 022°13'0 0.0
2017-Jun-19 12:58N 60°27' E 022°13'0 0.0
2017-Jun-19 12:28N 60°27' E 022°13'0 0.0
2017-Jun-19 11:58N 60°27' E 022°13'0 0.0
2017-Jun-19 11:28N 60°27' E 022°13'0 0.0
2017-Jun-19 10:58N 60°27' E 022°13'0 0.0
2017-Jun-19 10:28N 60°27' E 022°13'0 0.0
2017-Jun-19 09:58N 60°27' E 022°13'0 0.0
2017-Jun-19 09:28N 60°27' E 022°13'0 0.0
2017-Jun-19 08:58N 60°27' E 022°13'0 0.0
2017-Jun-19 08:28N 60°27' E 022°13'0 0.0
2017-Jun-19 07:58N 60°27' E 022°13'0 0.0
2017-Jun-19 07:28N 60°27' E 022°13'0 0.0
2017-Jun-19 06:58N 60°27' E 022°13'0 0.0
2017-Jun-19 06:28N 60°27' E 022°13'0 0.0
2017-Jun-19 05:58N 60°27' E 022°13'0 0.0
2017-Jun-19 05:31N 60°27' E 022°13'0 0.0
2017-Jun-19 04:58N 60°27' E 022°13'0 0.0
2017-Jun-19 04:28N 60°27' E 022°13'0 0.0
2017-Jun-19 03:58N 60°27' E 022°13'0 0.0
2017-Jun-19 03:30N 60°27' E 022°13'2 4.1
2017-Jun-19 03:00N 60°25' E 022°10'5 9.3
2017-Jun-19 02:30N 60°21' E 022°05'612.8
2017-Jun-19 02:00N 60°16' E 021°57'713.8
2017-Jun-19 01:30N 60°14' E 021°44'510.7
2017-Jun-19 01:01N 60°09' E 021°41'612.7
2017-Jun-19 00:31N 60°02' E 021°41'713.4
2017-Jun-19 00:01N 59°56' E 021°39'714.1
2017-Jun-18 23:31N 59°52' E 021°27'612.6
2017-Jun-18 23:00N 59°46' E 021°21'612.4
2017-Jun-18 22:30N 59°40' E 021°22'713.4
2017-Jun-18 22:00N 59°36' E 021°33'714.4
2017-Jun-18 21:31N 59°36' E 021°47'714.5
2017-Jun-18 21:00N 59°36' E 022°01'714.5
2017-Jun-18 20:31N 59°37' E 022°15'714.5
2017-Jun-18 20:00N 59°38' E 022°30'714.6
2017-Jun-18 19:31N 59°38' E 022°44'714.7
2017-Jun-18 19:00N 59°39' E 022°59'714.6
2017-Jun-18 18:30N 59°40' E 023°13'815.2
2017-Jun-18 18:01N 59°41' E 023°28'815.5
2017-Jun-18 17:30N 59°43' E 023°43'815.3
2017-Jun-18 17:01N 59°46' E 023°57'815.1
2017-Jun-18 16:31N 59°48' E 024°11'815.1
2017-Jun-18 16:00N 59°51' E 024°25'714.9
2017-Jun-18 15:31N 59°54' E 024°38'714.8
2017-Jun-18 15:01N 59°58' E 024°51'1211.6
2017-Jun-18 14:00N 60°09' E 024°60'2 2.6
2017-Jun-18 13:25N 60°10' E 024°58'0 0.0
2017-Jun-18 12:58N 60°10' E 024°58'0 0.0
2017-Jun-18 12:28N 60°10' E 024°58'0 0.0
2017-Jun-18 11:58N 60°10' E 024°58'0 0.0
2017-Jun-18 11:28N 60°10' E 024°58'0 0.0
2017-Jun-18 10:58N 60°10' E 024°58'0 0.0
2017-Jun-18 10:28N 60°10' E 024°58'0 0.0
2017-Jun-18 09:58N 60°10' E 024°58'0 0.0
2017-Jun-18 09:25N 60°10' E 024°58'0 0.0
2017-Jun-18 08:58N 60°10' E 024°58'0 0.0
2017-Jun-18 08:28N 60°10' E 024°58'0 0.0
2017-Jun-18 07:58N 60°10' E 024°58'0 0.0
2017-Jun-18 07:28N 60°10' E 024°58'0 0.0
2017-Jun-18 06:58N 60°10' E 024°58'0 0.0
2017-Jun-18 06:28N 60°10' E 024°58'0 0.0
2017-Jun-18 05:52N 60°10' E 024°58'0 0.0
2017-Jun-18 05:28N 60°10' E 024°58'0 0.0
2017-Jun-18 04:58N 60°10' E 024°58'0 0.0
2017-Jun-18 04:28N 60°10' E 024°58'0 0.7
2017-Jun-18 04:01N 60°10' E 024°58'510.0
2017-Jun-18 03:31N 60°05' E 024°58'510.1
2017-Jun-18 03:00N 60°00' E 025°03'714.2
2017-Jun-18 02:30N 59°59' E 025°17'815.7
2017-Jun-18 02:00N 59°58' E 025°33'815.5
2017-Jun-18 01:30N 59°58' E 025°48'815.7
2017-Jun-18 01:01N 59°59' E 026°04'815.8
2017-Jun-18 00:31N 60°00' E 026°19'815.6
2017-Jun-18 00:01N 60°01' E 026°35'815.6
2017-Jun-17 23:31N 60°00' E 026°50'815.0
2017-Jun-17 23:01N 60°00' E 027°05'815.8
2017-Jun-17 22:31N 60°05' E 027°19'815.8
2017-Jun-17 22:00N 60°08' E 027°32'815.4
2017-Jun-17 21:30N 60°12' E 027°46'815.6
2017-Jun-17 21:00N 60°10' E 028°01'815.5
2017-Jun-17 20:30N 60°08' E 028°17'815.4
2017-Jun-17 20:00N 60°04' E 028°29'815.8
2017-Jun-17 19:30N 60°03' E 028°45'815.1
2017-Jun-17 19:00N 60°02' E 029°00'815.8
2017-Jun-17 18:30N 60°02' E 029°16'612.8
2017-Jun-17 18:00N 60°02' E 029°29'612.2
2017-Jun-17 17:30N 59°60' E 029°40'510.7
2017-Jun-17 17:00N 59°57' E 029°50'611.3
2017-Jun-17 16:31N 59°55' E 030°00'510.6
2017-Jun-17 16:01N 59°53' E 030°10'3 6.2
2017-Jun-17 15:30N 59°55' E 030°15'1 2.8
2017-Jun-17 15:01N 59°56' E 030°17'0 0.0
2017-Jun-17 14:28N 59°56' E 030°17'0 0.0
2017-Jun-17 13:28N 59°56' E 030°17'0 0.0
2017-Jun-17 12:58N 59°56' E 030°17'0 0.0
2017-Jun-17 12:28N 59°56' E 030°17'0 0.0
2017-Jun-17 11:58N 59°56' E 030°17'0 0.0
2017-Jun-17 11:28N 59°56' E 030°17'0 0.0
2017-Jun-17 10:58N 59°56' E 030°17'0 0.0
2017-Jun-17 10:28N 59°56' E 030°17'0 0.0
2017-Jun-17 09:58N 59°56' E 030°17'0 0.0
2017-Jun-17 09:28N 59°56' E 030°17'0 0.0
2017-Jun-17 08:58N 59°56' E 030°17'0 0.0
2017-Jun-17 08:28N 59°56' E 030°17'0 0.0
2017-Jun-17 07:58N 59°56' E 030°17'0 0.0
2017-Jun-17 07:28N 59°56' E 030°17'0 0.0
2017-Jun-17 06:58N 59°56' E 030°17'0 0.0
2017-Jun-17 06:30N 59°56' E 030°17'0 0.0
2017-Jun-17 05:58N 59°56' E 030°17'0 0.0
2017-Jun-17 05:30N 59°56' E 030°17'0 0.0
2017-Jun-17 04:57N 59°56' E 030°17'0 0.0
2017-Jun-17 04:31N 59°56' E 030°17'0 0.0
2017-Jun-17 04:01N 59°56' E 030°17'0 0.0
2017-Jun-17 03:28N 59°56' E 030°17'0 0.0
2017-Jun-17 02:58N 59°56' E 030°17'0 0.0
2017-Jun-17 02:30N 59°56' E 030°17'0 0.0
2017-Jun-17 02:01N 59°56' E 030°17'0 0.0
2017-Jun-17 01:28N 59°56' E 030°17'0 0.0
2017-Jun-17 01:01N 59°56' E 030°17'0 0.0
2017-Jun-17 00:30N 59°56' E 030°17'0 0.0
2017-Jun-16 23:58N 59°56' E 030°17'0 0.0
2017-Jun-16 23:28N 59°56' E 030°17'0 0.0
2017-Jun-16 22:58N 59°56' E 030°17'0 0.0
2017-Jun-16 22:27N 59°56' E 030°17'0 0.0
2017-Jun-16 21:55N 59°56' E 030°17'0 0.0
2017-Jun-16 21:30N 59°56' E 030°17'0 0.0
2017-Jun-16 21:00N 59°56' E 030°17'0 0.0
2017-Jun-16 20:31N 59°56' E 030°17'0 0.0
2017-Jun-16 20:01N 59°56' E 030°17'0 0.0
2017-Jun-16 19:31N 59°56' E 030°17'0 0.0
2017-Jun-16 19:00N 59°56' E 030°17'0 0.0
2017-Jun-16 18:28N 59°56' E 030°17'0 0.0
2017-Jun-16 17:57N 59°56' E 030°17'0 0.0
2017-Jun-16 17:31N 59°56' E 030°17'0 0.0
2017-Jun-16 17:01N 59°56' E 030°17'0 0.0
2017-Jun-16 16:30N 59°56' E 030°17'0 0.0
2017-Jun-16 16:01N 59°56' E 030°17'0 0.0
2017-Jun-16 15:28N 59°56' E 030°17'0 0.0
2017-Jun-16 15:00N 59°56' E 030°17'0 0.0
2017-Jun-16 14:30N 59°56' E 030°17'0 0.0
2017-Jun-16 13:31N 59°56' E 030°17'0 0.0
2017-Jun-16 12:58N 59°56' E 030°17'0 0.0
2017-Jun-16 12:28N 59°56' E 030°17'0 0.0
2017-Jun-16 12:01N 59°56' E 030°17'0 0.0
2017-Jun-16 11:30N 59°56' E 030°17'0 0.0
2017-Jun-16 11:01N 59°56' E 030°17'0 0.0
2017-Jun-16 10:30N 59°56' E 030°17'0 0.0
2017-Jun-16 10:00N 59°56' E 030°17'0 0.0
2017-Jun-16 09:30N 59°56' E 030°17'0 0.0
2017-Jun-16 09:00N 59°56' E 030°17'0 0.0
2017-Jun-16 08:30N 59°56' E 030°17'0 0.0
2017-Jun-16 08:00N 59°56' E 030°17'0 0.0
2017-Jun-16 07:30N 59°56' E 030°17'0 0.0
2017-Jun-16 07:01N 59°56' E 030°17'0 0.0
2017-Jun-16 06:30N 59°56' E 030°17'1 2.8
2017-Jun-16 06:00N 59°55' E 030°15'3 6.2
2017-Jun-16 05:30N 59°53' E 030°10'4 8.4
2017-Jun-16 05:00N 59°55' E 030°03'510.6
2017-Jun-16 04:30N 59°57' E 029°53'510.3
2017-Jun-16 04:01N 59°59' E 029°44'611.4
2017-Jun-16 03:31N 60°01' E 029°33'611.1
2017-Jun-16 03:01N 60°02' E 029°22'713.5
2017-Jun-16 02:31N 60°02' E 029°08'713.8
2017-Jun-16 02:01N 60°02' E 028°54'714.1
2017-Jun-16 01:31N 60°02' E 028°40'713.9
2017-Jun-16 01:01N 60°03' E 028°26'713.7
2017-Jun-16 00:30N 60°07' E 028°15'713.9
2017-Jun-16 00:00N 60°09' E 028°02'713.9
2017-Jun-15 23:30N 60°11' E 027°48'713.9
2017-Jun-15 23:00N 60°08' E 027°36'714.1
2017-Jun-15 22:30N 60°04' E 027°24'714.1
2017-Jun-15 22:00N 60°00' E 027°12'713.1
2017-Jun-15 21:30N 59°58' E 026°59'714.0
2017-Jun-15 21:00N 59°60' E 026°46'713.7
2017-Jun-15 20:30N 59°59' E 026°32'713.9
2017-Jun-15 20:01N 59°57' E 026°19'713.7
2017-Jun-15 19:31N 59°55' E 026°06'713.8
2017-Jun-15 19:01N 59°52' E 025°53'714.0
2017-Jun-15 18:30N 59°50' E 025°40'714.1
2017-Jun-15 18:00N 59°48' E 025°26'714.1
2017-Jun-15 17:30N 59°46' E 025°13'714.2
2017-Jun-15 17:00N 59°44' E 024°59'714.7
2017-Jun-15 16:30N 59°41' E 024°47'612.2
2017-Jun-15 16:00N 59°35' E 024°42'612.9
2017-Jun-15 15:30N 59°29' E 024°46'2 3.2
2017-Jun-15 15:00N 59°27' E 024°46'0 0.0
2017-Jun-15 14:00N 59°27' E 024°46'0 0.0
2017-Jun-15 13:30N 59°27' E 024°46'0 0.0
2017-Jun-15 12:57N 59°27' E 024°46'0 0.0
2017-Jun-15 12:28N 59°27' E 024°46'0 0.0
2017-Jun-15 11:58N 59°27' E 024°46'0 0.0
2017-Jun-15 11:30N 59°27' E 024°46'0 0.0
2017-Jun-15 10:58N 59°27' E 024°46'0 0.0
2017-Jun-15 10:30N 59°27' E 024°46'0 0.0
2017-Jun-15 09:59N 59°27' E 024°46'13 4.3
2017-Jun-15 06:55N 59°30' E 024°21'712.8
2017-Jun-15 06:24N 59°29' E 024°08'512.7
2017-Jun-15 06:00N 59°28' E 023°58'713.5
2017-Jun-15 05:29N 59°27' E 023°44'714.0
2017-Jun-15 05:00N 59°27' E 023°31'1013.7
2017-Jun-15 04:16N 59°25' E 023°11'613.6
2017-Jun-15 03:50N 59°24' E 022°60'913.8
2017-Jun-15 03:09N 59°23' E 022°42'214.1
2017-Jun-15 03:00N 59°23' E 022°38'1215.0
2017-Jun-15 02:12N 59°22' E 022°14'315.2
2017-Jun-15 01:59N 59°22' E 022°08'715.3
2017-Jun-15 01:30N 59°21' E 021°53'5815.2
2017-Jun-14 21:40N 59°16' E 019°59'315.3
2017-Jun-14 21:30N 59°16' E 019°54'915.2
2017-Jun-14 20:53N 59°15' E 019°36'615.1
2017-Jun-14 20:30N 59°15' E 019°25'815.1
2017-Jun-14 20:00N 59°14' E 019°10'612.8
2017-Jun-14 19:30N 59°16' E 018°58'510.0
2017-Jun-14 19:00N 59°19' E 018°50'612.3
2017-Jun-14 18:30N 59°23' E 018°41'712.3
2017-Jun-14 17:59N 59°26' E 018°30'3 5.2
2017-Jun-14 17:29N 59°25' E 018°25'3 6.5
2017-Jun-14 16:59N 59°22' E 018°24'510.3
2017-Jun-14 16:30N 59°21' E 018°15'5 9.6
2017-Jun-14 16:00N 59°19' E 018°06'0 0.7
2017-Jun-14 15:29N 59°19' E 018°05'0 0.0
2017-Jun-14 14:59N 59°19' E 018°05'0 0.0
2017-Jun-14 13:59N 59°19' E 018°05'0 0.0
2017-Jun-14 13:29N 59°19' E 018°05'0 0.0
2017-Jun-14 12:59N 59°19' E 018°05'0 0.0
2017-Jun-14 12:29N 59°19' E 018°05'0 0.0
2017-Jun-14 11:59N 59°19' E 018°05'0 0.0
2017-Jun-14 11:29N 59°19' E 018°05'0 0.0
2017-Jun-14 10:59N 59°19' E 018°05'0 0.0
2017-Jun-14 10:29N 59°19' E 018°05'0 0.0
2017-Jun-14 09:59N 59°19' E 018°05'0 0.0
2017-Jun-14 09:29N 59°19' E 018°05'0 0.0
2017-Jun-14 08:59N 59°19' E 018°05'0 0.0
2017-Jun-14 08:23N 59°19' E 018°05'0 0.0
2017-Jun-14 07:59N 59°19' E 018°05'0 0.0
2017-Jun-14 07:29N 59°19' E 018°05'0 0.0
2017-Jun-14 06:59N 59°19' E 018°05'0 0.0
2017-Jun-14 06:29N 59°19' E 018°05'2 3.9
2017-Jun-14 06:00N 59°19' E 018°09'611.3
2017-Jun-14 05:30N 59°23' E 018°18'5 9.2
2017-Jun-14 05:00N 59°22' E 018°27'5 9.5
2017-Jun-14 04:30N 59°27' E 018°24'611.2
2017-Jun-14 04:00N 59°23' E 018°33'611.4
2017-Jun-14 03:31N 59°22' E 018°44'612.1
2017-Jun-14 03:00N 59°18' E 018°53'510.7
2017-Jun-14 02:30N 59°15' E 019°02'612.7
2017-Jun-14 02:01N 59°11' E 019°11'815.9
2017-Jun-14 01:30N 59°05' E 019°22'816.2
2017-Jun-14 01:01N 58°59' E 019°33'816.4
2017-Jun-14 00:31N 58°53' E 019°43'816.5
2017-Jun-14 00:01N 58°47' E 019°54'1116.5
2017-Jun-13 23:22N 58°40' E 020°08'616.4
2017-Jun-13 23:01N 58°36' E 020°16'816.3
2017-Jun-13 22:30N 58°30' E 020°28'816.3
2017-Jun-13 22:01N 58°25' E 020°40'  

Dump ship's entire track history